Time;durP1;ratioP1;P1;durP2;ratioP2;P2;SDS_P1;SDS_P2;PMS_P1;PMS_P2;Temp;Humidity;BMP_temperature;BMP_pressure;BME280_temperature;BME280_humidity;BME280_pressure;Samples;Min_cycle;Max_cycle;Signal;HPM_P1;HPM_P2
2021/12/29 00:00:16;;;;;;;16.27;6.50;;;5.10;99.90;;;;;;4992769;28;20050;-72
2021/12/29 00:02:41;;;;;;;13.90;5.18;;;5.10;99.90;;;;;;4975035;28;20062;-72
2021/12/29 00:05:08;;;;;;;13.45;4.95;;;5.10;99.90;;;;;;4996719;28;20042;-75
2021/12/29 00:07:34;;;;;;;16.27;6.30;;;5.10;99.90;;;;;;4997016;28;20412;-74
2021/12/29 00:10:01;;;;;;;26.92;6.65;;;5.10;99.90;;;;;;4996952;28;20039;-74
2021/12/29 00:12:27;;;;;;;31.45;6.00;;;5.10;99.90;;;;;;4979387;28;20042;-74
2021/12/29 00:14:54;;;;;;;30.38;6.43;;;5.10;99.90;;;;;;4996579;28;20125;-75
2021/12/29 00:17:20;;;;;;;35.85;6.43;;;5.10;99.90;;;;;;4996769;28;20053;-74
2021/12/29 00:19:46;;;;;;;20.45;5.68;;;5.10;99.90;;;;;;4979549;28;20073;-74
2021/12/29 00:22:12;;;;;;;20.83;5.88;;;5.10;99.90;;;;;;4996637;28;20084;-77
2021/12/29 00:24:38;;;;;;;15.82;4.90;;;5.10;99.90;;;;;;4996698;28;20133;-74
2021/12/29 00:27:05;;;;;;;15.02;5.57;;;5.10;99.90;;;;;;4996550;28;20054;-76
2021/12/29 00:29:31;;;;;;;15.00;5.70;;;5.10;99.90;;;;;;4996294;28;20051;-75
2021/12/29 00:31:57;;;;;;;31.48;6.05;;;5.30;99.90;;;;;;4996384;28;20046;-76
2021/12/29 00:34:23;;;;;;;18.60;5.63;;;5.10;99.90;;;;;;4978993;28;20042;-76
2021/12/29 00:36:48;;;;;;;28.13;6.80;;;5.10;99.90;;;;;;4996285;28;20050;-75
2021/12/29 00:39:14;;;;;;;32.20;7.70;;;5.10;99.90;;;;;;4996410;28;20053;-75
2021/12/29 00:41:40;;;;;;;21.77;6.22;;;5.10;99.90;;;;;;4978812;28;20038;-75
2021/12/29 00:44:08;;;;;;;26.15;6.82;;;5.10;99.90;;;;;;4996084;28;20105;-74
2021/12/29 00:46:38;;;;;;;27.10;6.60;;;5.10;99.90;;;;;;4996176;28;20053;-74
2021/12/29 00:49:06;;;;;;;31.02;7.55;;;5.10;99.90;;;;;;4994968;28;20046;-73
2021/12/29 00:51:32;;;;;;;27.30;7.75;;;5.10;99.90;;;;;;4996325;28;20042;-74
2021/12/29 00:53:57;;;;;;;34.53;8.63;;;5.10;99.90;;;;;;4978872;28;20451;-74
2021/12/29 00:56:23;;;;;;;25.25;7.40;;;5.10;99.90;;;;;;4995952;28;20047;-76
2021/12/29 00:58:49;;;;;;;37.88;8.32;;;5.10;99.90;;;;;;4995860;28;20396;-77
2021/12/29 01:01:15;;;;;;;46.75;8.13;;;5.10;99.90;;;;;;4995793;28;20050;-75
2021/12/29 01:03:43;;;;;;;23.52;7.72;;;5.10;99.90;;;;;;4995933;28;20057;-73
2021/12/29 01:06:09;;;;;;;39.13;10.25;;;5.10;99.90;;;;;;4995535;28;20058;-74
2021/12/29 01:08:35;;;;;;;33.95;9.05;;;5.10;99.90;;;;;;4995635;28;20054;-75
2021/12/29 01:11:01;;;;;;;50.67;11.85;;;5.10;99.90;;;;;;4995609;28;20049;-75
2021/12/29 01:13:31;;;;;;;42.80;10.50;;;5.80;99.90;;;;;;4978091;28;20061;-76
2021/12/29 01:18:36;;;;;;;31.73;10.93;;;5.10;99.90;;;;;;4978015;28;20065;-75
2021/12/29 01:21:02;;;;;;;55.40;12.40;;;5.10;99.90;;;;;;4978653;28;20447;-74
2021/12/29 01:23:28;;;;;;;27.95;11.55;;;5.10;99.90;;;;;;4995212;28;20186;-75
2021/12/29 01:25:53;;;;;;;39.20;12.65;;;5.10;99.90;;;;;;4978051;28;20126;-76
2021/12/29 01:28:19;;;;;;;40.58;12.40;;;5.50;99.90;;;;;;4995551;28;20131;-72
2021/12/29 01:30:45;;;;;;;31.17;12.15;;;5.20;99.90;;;;;;4995185;28;20451;-76
2021/12/29 01:33:11;;;;;;;30.20;12.30;;;5.20;99.90;;;;;;4995422;28;20030;-74
2021/12/29 01:35:39;;;;;;;29.30;12.32;;;5.20;99.90;;;;;;4977748;28;20046;-76
2021/12/29 01:38:06;;;;;;;34.15;12.05;;;5.20;99.90;;;;;;4961036;28;20065;-74
2021/12/29 01:40:32;;;;;;;26.63;11.57;;;5.20;99.90;;;;;;4995242;28;20042;-75
2021/12/29 01:42:58;;;;;;;26.67;11.25;;;5.20;99.90;;;;;;4977719;28;20105;-75
2021/12/29 01:45:24;;;;;;;32.33;12.70;;;5.20;99.90;;;;;;4977714;28;20416;-76
2021/12/29 01:47:50;;;;;;;40.78;12.30;;;5.20;99.90;;;;;;4995471;28;20042;-73
2021/12/29 01:50:17;;;;;;;34.15;13.10;;;5.20;99.90;;;;;;4977891;28;20042;-73
2021/12/29 01:52:49;;;;;;;24.75;11.95;;;5.20;99.90;;;;;;4994983;28;20089;-75
2021/12/29 01:55:16;;;;;;;32.53;12.77;;;5.20;99.90;;;;;;4977695;28;20061;-74
2021/12/29 01:57:42;;;;;;;24.80;10.90;;;5.20;99.90;;;;;;4994914;28;20065;-72
2021/12/29 02:00:12;;;;;;;23.33;10.68;;;5.10;99.90;;;;;;4994670;28;20046;-75
2021/12/29 02:02:39;;;;;;;28.58;10.57;;;5.20;99.90;;;;;;4994916;28;20050;-70
2021/12/29 02:05:05;;;;;;;22.88;10.63;;;5.20;99.90;;;;;;4994579;28;20054;-73
2021/12/29 02:07:31;;;;;;;20.33;9.77;;;5.20;99.90;;;;;;4977303;28;20048;-73
2021/12/29 02:09:57;;;;;;;27.27;11.15;;;5.20;99.90;;;;;;4994786;28;20038;-73
2021/12/29 02:12:23;;;;;;;24.30;10.93;;;5.20;99.90;;;;;;4994632;28;20047;-74
2021/12/29 02:14:49;;;;;;;25.33;11.15;;;5.20;99.90;;;;;;4977088;28;20188;-74
2021/12/29 02:17:15;;;;;;;22.42;10.00;;;5.20;99.90;;;;;;4977151;28;20042;-71
2021/12/29 02:19:46;;;;;;;25.92;10.50;;;5.20;99.90;;;;;;4994469;28;20121;-72
2021/12/29 02:25:20;;;;;;;27.27;10.48;;;5.20;99.90;;;;;;4915133;29;20052;-75
2021/12/29 02:27:50;;;;;;;26.40;11.20;;;5.20;99.90;;;;;;4915150;29;20064;-73
2021/12/29 02:30:20;;;;;;;32.22;11.35;;;5.30;99.90;;;;;;4915224;29;20409;-72
2021/12/29 02:32:45;;;;;;;31.23;10.32;;;5.30;99.90;;;;;;4899440;29;20055;-72
2021/12/29 02:35:15;;;;;;;46.38;12.10;;;5.70;99.90;;;;;;4899366;28;20490;-73
2021/12/29 02:37:40;;;;;;;47.13;12.68;;;5.40;99.90;;;;;;4915272;29;20052;-73
2021/12/29 02:40:07;;;;;;;43.15;12.70;;;5.30;99.90;;;;;;4915071;29;20055;-73
2021/12/29 02:42:39;;;;;;;29.75;10.40;;;5.40;99.90;;;;;;4899217;29;20116;-71
2021/12/29 02:45:11;;;;;;;54.47;13.85;;;5.40;99.90;;;;;;4914986;29;20124;-72
2021/12/29 02:47:37;;;;;;;45.13;13.07;;;5.40;99.90;;;;;;4899173;29;20082;-72
2021/12/29 02:50:04;;;;;;;47.88;11.90;;;5.50;99.90;;;;;;4915044;29;20116;-74
2021/12/29 02:52:30;;;;;;;44.47;11.82;;;5.50;99.90;;;;;;4899126;29;20048;-75
2021/12/29 02:54:55;;;;;;;46.08;12.35;;;5.80;99.90;;;;;;4914411;29;20476;-72
2021/12/29 02:57:21;;;;;;;34.67;11.88;;;5.50;99.90;;;;;;4914955;29;20082;-72
2021/12/29 02:59:47;;;;;;;38.67;11.93;;;5.50;99.90;;;;;;4914935;29;20173;-70
2021/12/29 03:02:13;;;;;;;49.78;11.90;;;5.50;99.90;;;;;;4958670;28;20051;-73
2021/12/29 03:04:38;;;;;;;51.28;12.70;;;5.50;99.90;;;;;;4993396;28;20090;-74
2021/12/29 03:07:04;;;;;;;35.72;10.52;;;5.50;99.90;;;;;;4976275;28;20088;-74
2021/12/29 03:09:31;;;;;;;46.95;11.35;;;5.50;99.90;;;;;;4960074;28;20130;-75
2021/12/29 03:11:57;;;;;;;51.63;12.88;;;5.50;99.90;;;;;;4975917;28;20104;-75
2021/12/29 03:14:23;;;;;;;41.47;12.02;;;5.50;99.90;;;;;;4976343;28;20054;-74
2021/12/29 03:16:49;;;;;;;43.45;12.35;;;5.60;99.90;;;;;;4976136;28;20046;-74
2021/12/29 03:19:14;;;;;;;38.00;12.25;;;5.60;99.90;;;;;;4975915;28;20101;-74
2021/12/29 03:21:40;;;;;;;45.40;12.90;;;5.60;99.90;;;;;;4993205;28;20041;-73
2021/12/29 03:24:09;;;;;;;41.38;14.00;;;5.60;99.90;;;;;;4993348;28;20125;-75
2021/12/29 03:26:34;;;;;;;57.67;15.43;;;5.70;99.90;;;;;;4960236;28;20389;-74
2021/12/29 03:29:00;;;;;;;55.92;14.18;;;5.60;99.90;;;;;;4993516;28;20054;-73
2021/12/29 03:31:28;;;;;;;53.10;14.93;;;5.60;99.90;;;;;;4975743;28;20046;-74
2021/12/29 03:33:54;;;;;;;53.65;13.80;;;5.60;99.90;;;;;;4975342;28;20112;-73
2021/12/29 03:36:20;;;;;;;45.38;13.98;;;5.60;99.90;;;;;;4993353;28;20053;-73
2021/12/29 03:38:46;;;;;;;46.28;13.40;;;5.60;99.90;;;;;;4975793;28;20034;-74
2021/12/29 03:41:14;;;;;;;47.92;12.82;;;5.60;99.90;;;;;;4975718;28;20046;-73
2021/12/29 03:43:41;;;;;;;45.95;12.82;;;5.70;99.90;;;;;;4993333;28;20047;-74
2021/12/29 03:46:07;;;;;;;42.40;13.07;;;5.60;99.90;;;;;;4993077;28;20484;-73
2021/12/29 03:48:35;;;;;;;44.33;14.07;;;5.70;99.90;;;;;;4975973;28;20210;-73
2021/12/29 03:51:02;;;;;;;43.10;12.82;;;5.70;99.90;;;;;;4993358;28;20050;-74
2021/12/29 03:53:28;;;;;;;49.60;13.23;;;5.70;99.90;;;;;;4976004;28;20034;-74
2021/12/29 03:55:55;;;;;;;46.15;12.18;;;5.70;99.90;;;;;;4975446;28;20125;-72
2021/12/29 03:58:24;;;;;;;38.20;11.45;;;5.70;99.90;;;;;;4993209;28;20042;-72
2021/12/29 04:00:57;;;;;;;49.38;13.05;;;5.70;99.90;;;;;;4959545;28;20523;-72
2021/12/29 04:03:23;;;;;;;40.55;11.50;;;5.80;99.90;;;;;;4993218;28;20047;-73
2021/12/29 04:05:49;;;;;;;41.85;11.75;;;5.80;99.90;;;;;;4957541;28;20051;-72
2021/12/29 04:08:15;;;;;;;36.42;12.07;;;5.80;99.90;;;;;;4956249;28;20047;-73
2021/12/29 04:10:40;;;;;;;39.13;10.80;;;5.80;99.90;;;;;;4973510;28;20485;-75
2021/12/29 04:13:06;;;;;;;38.10;10.90;;;5.90;99.90;;;;;;4973619;28;20125;-72
2021/12/29 04:15:33;;;;;;;41.33;10.90;;;5.90;99.90;;;;;;4956364;28;20057;-72
2021/12/29 04:18:03;;;;;;;43.45;12.85;;;5.90;99.90;;;;;;4956192;28;20600;-73
2021/12/29 04:23:19;;;;;;;35.53;11.10;;;6.00;99.90;;;;;;4973598;28;20137;-73
2021/12/29 04:25:53;;;;;;;34.17;11.65;;;6.00;99.90;;;;;;4973362;28;20046;-73
2021/12/29 04:28:23;;;;;;;35.20;10.55;;;6.00;99.90;;;;;;4956134;28;20054;-72
2021/12/29 04:30:52;;;;;;;38.28;13.30;;;6.00;99.90;;;;;;4973413;28;20055;-74
2021/12/29 04:33:19;;;;;;;41.10;11.95;;;6.10;99.90;;;;;;4956206;28;20390;-73
2021/12/29 04:35:46;;;;;;;40.15;12.10;;;6.10;99.90;;;;;;4973293;28;20492;-73
2021/12/29 04:38:13;;;;;;;46.13;12.02;;;6.20;99.90;;;;;;4973526;28;20443;-73
2021/12/29 04:40:39;;;;;;;52.15;11.73;;;6.20;99.90;;;;;;4955742;28;20055;-72
2021/12/29 04:43:05;;;;;;;42.13;13.00;;;6.20;99.90;;;;;;4973066;28;20050;-74
2021/12/29 04:45:30;;;;;;;46.72;12.52;;;6.20;99.90;;;;;;4973001;28;20173;-72
2021/12/29 04:47:56;;;;;;;50.08;13.77;;;6.20;99.90;;;;;;4973209;28;20038;-76
2021/12/29 04:50:36;;;;;;;49.47;12.98;;;6.90;99.90;;;;;;4958327;28;20126;-75
2021/12/29 04:53:04;;;;;;;48.28;13.10;;;6.20;99.90;;;;;;4943580;28;20405;-74
2021/12/29 04:55:30;;;;;;;62.80;15.07;;;6.20;99.90;;;;;;4959447;28;20043;-74
2021/12/29 04:57:57;;;;;;;51.85;15.27;;;6.20;99.90;;;;;;4976485;28;20058;-74
2021/12/29 05:00:25;;;;;;;49.88;14.48;;;6.20;99.90;;;;;;4976529;28;20051;-71
2021/12/29 05:02:52;;;;;;;59.78;14.60;;;6.20;99.90;;;;;;4976411;28;20054;-74
2021/12/29 05:05:22;;;;;;;47.30;14.23;;;6.20;99.90;;;;;;4987956;28;20129;-74
2021/12/29 05:10:33;;;;;;;41.47;15.32;;;6.20;99.90;;;;;;4978559;28;20077;-74
2021/12/29 05:12:59;;;;;;;58.55;17.10;;;6.20;99.90;;;;;;4978216;28;20058;-72
2021/12/29 05:15:25;;;;;;;54.83;16.02;;;6.20;99.90;;;;;;4978265;28;20055;-74
2021/12/29 05:17:51;;;;;;;72.13;18.95;;;6.20;99.90;;;;;;4995924;28;20050;-72
2021/12/29 05:20:17;;;;;;;63.65;17.77;;;6.20;99.90;;;;;;4978046;28;20042;-72
2021/12/29 05:22:43;;;;;;;79.82;19.90;;;6.20;99.90;;;;;;4977996;28;20061;-67
2021/12/29 05:25:09;;;;;;;69.93;19.77;;;6.20;99.90;;;;;;4978291;28;20130;-74
2021/12/29 05:27:34;;;;;;;71.63;20.30;;;6.20;99.90;;;;;;4995487;28;20137;-74
2021/12/29 05:30:03;;;;;;;64.78;17.10;;;6.10;99.90;;;;;;4977994;28;20050;-73
2021/12/29 05:32:30;;;;;;;72.45;20.05;;;6.10;99.90;;;;;;4977821;28;20050;-74
2021/12/29 05:34:57;;;;;;;64.47;19.10;;;6.10;99.90;;;;;;4995617;28;20092;-76
2021/12/29 05:37:23;;;;;;;53.72;19.20;;;6.10;99.90;;;;;;4995450;28;20042;-74
2021/12/29 05:39:48;;;;;;;57.05;18.90;;;6.10;99.90;;;;;;4995335;28;20062;-73
2021/12/29 05:42:15;;;;;;;51.95;19.23;;;6.10;99.90;;;;;;4995156;28;20053;-75
2021/12/29 05:44:40;;;;;;;56.33;19.60;;;6.20;99.90;;;;;;4977834;28;20042;-73
2021/12/29 05:47:06;;;;;;;55.42;18.10;;;6.20;99.90;;;;;;4994961;28;20561;-71
2021/12/29 05:49:32;;;;;;;63.30;20.20;;;6.20;99.90;;;;;;4977883;28;20046;-72
2021/12/29 05:51:58;;;;;;;63.95;20.45;;;6.20;99.90;;;;;;4994901;28;20043;-72
2021/12/29 05:54:23;;;;;;;53.75;19.00;;;6.20;99.90;;;;;;4995197;28;20084;-72
2021/12/29 05:56:49;;;;;;;46.88;19.38;;;6.20;99.90;;;;;;4994911;28;20407;-72
2021/12/29 05:59:15;;;;;;;54.03;20.80;;;6.20;99.90;;;;;;4994957;28;20046;-73
2021/12/29 06:01:43;;;;;;;60.72;19.60;;;6.20;99.90;;;;;;4994469;28;20057;-73
2021/12/29 06:04:09;;;;;;;63.05;20.23;;;6.20;99.90;;;;;;4994408;28;20484;-74
2021/12/29 06:06:34;;;;;;;66.85;20.45;;;6.20;99.90;;;;;;4994833;28;20121;-72
2021/12/29 06:09:00;;;;;;;76.75;22.73;;;6.30;99.90;;;;;;4994804;28;20399;-72
2021/12/29 06:11:26;;;;;;;63.78;21.45;;;6.30;99.90;;;;;;4994783;28;20516;-73
2021/12/29 06:13:51;;;;;;;68.78;22.27;;;6.30;99.90;;;;;;4994717;28;20460;-74
2021/12/29 06:16:17;;;;;;;57.45;19.63;;;6.40;99.90;;;;;;4994436;28;20105;-72
2021/12/29 06:18:42;;;;;;;71.88;21.98;;;6.90;99.90;;;;;;4976838;28;20051;-75
2021/12/29 06:21:08;;;;;;;64.35;20.50;;;6.40;99.90;;;;;;4994573;28;20064;-76
2021/12/29 06:23:34;;;;;;;59.10;18.00;;;6.40;99.90;;;;;;4994416;28;20038;-72
2021/12/29 06:25:59;;;;;;;82.00;20.73;;;6.40;99.90;;;;;;4994435;28;20050;-74
2021/12/29 06:28:25;;;;;;;53.72;20.50;;;6.50;99.90;;;;;;4994495;28;20124;-72
2021/12/29 06:30:51;;;;;;;68.70;19.25;;;6.50;99.90;;;;;;4976764;28;20120;-73
2021/12/29 06:33:16;;;;;;;61.42;18.67;;;6.50;99.90;;;;;;4993919;28;20072;-72
2021/12/29 06:35:42;;;;;;;65.10;20.08;;;6.50;99.90;;;;;;4994108;28;20053;-73
2021/12/29 06:38:08;;;;;;;65.13;21.65;;;6.50;99.90;;;;;;4994071;28;20126;-75
2021/12/29 06:40:33;;;;;;;72.15;21.05;;;6.50;99.90;;;;;;4976695;28;20129;-72
2021/12/29 06:42:59;;;;;;;64.07;18.67;;;6.50;99.90;;;;;;4994048;28;20050;-73
2021/12/29 06:45:26;;;;;;;78.50;20.88;;;6.50;99.90;;;;;;4994087;28;20038;-72
2021/12/29 06:47:52;;;;;;;62.45;19.70;;;6.50;99.90;;;;;;4993734;28;20068;-75
2021/12/29 06:50:18;;;;;;;63.95;19.85;;;6.50;99.90;;;;;;4993838;28;20492;-75
2021/12/29 06:52:43;;;;;;;60.67;19.30;;;6.50;99.90;;;;;;4976745;28;20053;-75
2021/12/29 06:55:09;;;;;;;71.95;20.23;;;6.50;99.90;;;;;;4975762;28;20150;-75
2021/12/29 06:57:35;;;;;;;66.30;18.70;;;6.50;99.90;;;;;;4993826;28;20061;-75
2021/12/29 07:00:01;;;;;;;77.70;20.60;;;6.50;99.90;;;;;;4993747;28;20039;-73
2021/12/29 07:02:26;;;;;;;64.03;20.65;;;6.50;99.90;;;;;;4993660;28;20042;-74
2021/12/29 07:04:52;;;;;;;67.93;19.95;;;6.50;99.90;;;;;;4975411;28;20121;-76
2021/12/29 07:07:18;;;;;;;59.92;19.38;;;6.50;99.90;;;;;;4993828;28;20046;-76
2021/12/29 07:09:43;;;;;;;65.03;20.65;;;6.60;99.90;;;;;;4993682;28;20097;-73
2021/12/29 07:12:09;;;;;;;63.63;20.10;;;6.40;99.90;;;;;;4993343;28;20097;-73
2021/12/29 07:14:38;;;;;;;57.85;20.05;;;6.50;99.90;;;;;;4993491;28;20046;-74
2021/12/29 07:17:05;;;;;;;53.63;19.75;;;6.40;99.90;;;;;;4993404;28;20050;-74
2021/12/29 07:19:30;;;;;;;52.67;19.33;;;6.50;99.90;;;;;;4993348;28;20053;-76
2021/12/29 07:21:56;;;;;;;59.78;19.23;;;6.50;99.90;;;;;;4976093;28;20440;-76
2021/12/29 07:24:21;;;;;;;52.58;17.42;;;6.40;99.90;;;;;;4976254;28;20054;-74
2021/12/29 07:26:47;;;;;;;60.20;18.67;;;6.40;99.90;;;;;;4993493;28;20510;-72
2021/12/29 07:29:13;;;;;;;51.45;18.50;;;6.70;99.90;;;;;;4993235;28;20492;-74
2021/12/29 07:31:39;;;;;;;53.85;19.75;;;6.40;99.90;;;;;;4993117;28;20073;-75
2021/12/29 07:34:04;;;;;;;53.28;19.33;;;6.60;99.90;;;;;;4993150;28;20046;-74
2021/12/29 07:36:30;;;;;;;51.42;18.60;;;6.40;99.90;;;;;;4993380;28;20129;-76
2021/12/29 07:38:57;;;;;;;46.72;16.63;;;6.40;99.90;;;;;;4976509;28;20046;-77
2021/12/29 07:41:23;;;;;;;42.80;16.42;;;6.40;99.90;;;;;;4993392;28;20053;-74
2021/12/29 07:43:51;;;;;;;45.65;16.15;;;6.40;99.90;;;;;;4992953;28;20046;-75
2021/12/29 07:46:16;;;;;;;43.92;14.98;;;6.40;99.90;;;;;;4993178;28;20042;-75
2021/12/29 07:48:42;;;;;;;42.28;14.35;;;6.40;99.90;;;;;;4992905;28;20050;-73
2021/12/29 07:51:09;;;;;;;40.95;15.27;;;6.40;99.90;;;;;;4993028;28;20133;-74
2021/12/29 07:53:37;;;;;;;40.55;14.68;;;6.70;99.90;;;;;;4993216;28;20038;-75
2021/12/29 07:56:04;;;;;;;47.03;16.33;;;6.40;99.90;;;;;;4975550;28;20054;-74
2021/12/29 07:58:30;;;;;;;43.30;15.10;;;6.40;99.90;;;;;;4992912;28;20039;-75
2021/12/29 08:00:56;;;;;;;48.78;15.73;;;6.40;99.90;;;;;;4975532;28;20049;-75
2021/12/29 08:03:22;;;;;;;51.75;16.10;;;6.40;99.90;;;;;;4992885;28;20102;-75
2021/12/29 08:05:48;;;;;;;57.47;18.75;;;6.40;99.90;;;;;;4992609;28;20080;-75
2021/12/29 08:08:13;;;;;;;46.72;16.20;;;6.40;99.90;;;;;;4975410;28;20055;-75
2021/12/29 08:10:40;;;;;;;46.30;14.18;;;6.40;99.90;;;;;;4975637;28;20118;-75
2021/12/29 08:13:07;;;;;;;39.88;14.70;;;6.40;99.90;;;;;;4993046;28;20457;-75
2021/12/29 08:15:34;;;;;;;46.20;15.27;;;6.40;99.90;;;;;;4975439;28;20400;-75
2021/12/29 08:18:02;;;;;;;37.30;13.80;;;6.40;99.90;;;;;;4992738;28;20057;-72
2021/12/29 08:20:29;;;;;;;37.67;13.60;;;6.40;99.90;;;;;;4992803;28;20455;-75
2021/12/29 08:22:54;;;;;;;39.47;14.55;;;6.50;99.90;;;;;;4975553;28;20058;-75
2021/12/29 08:25:20;;;;;;;36.92;13.30;;;6.40;99.90;;;;;;4977267;28;20050;-75
2021/12/29 08:27:47;;;;;;;38.83;12.82;;;6.50;99.90;;;;;;4996682;28;20053;-75
2021/12/29 08:30:13;;;;;;;35.85;12.23;;;6.40;99.90;;;;;;4979163;28;20042;-76
2021/12/29 08:32:39;;;;;;;41.50;12.93;;;6.40;99.90;;;;;;4996421;28;20046;-76
2021/12/29 08:35:06;;;;;;;39.83;13.40;;;6.40;99.90;;;;;;4996307;28;20455;-74
2021/12/29 08:37:32;;;;;;;40.78;14.43;;;6.50;99.90;;;;;;4979329;28;20086;-75
2021/12/29 08:39:57;;;;;;;37.75;13.07;;;6.70;99.90;;;;;;4979199;28;20404;-74
2021/12/29 08:42:23;;;;;;;47.63;15.27;;;6.50;99.90;;;;;;4996314;28;20042;-76
2021/12/29 08:44:49;;;;;;;37.95;14.48;;;6.50;99.90;;;;;;4978867;28;20516;-75
2021/12/29 08:47:15;;;;;;;40.80;13.15;;;6.50;99.90;;;;;;4978585;28;20141;-75
2021/12/29 08:49:41;;;;;;;49.95;14.73;;;6.60;99.90;;;;;;4978757;28;20050;-76
2021/12/29 08:52:08;;;;;;;43.13;13.75;;;6.60;99.90;;;;;;4996299;28;20061;-76
2021/12/29 08:54:34;;;;;;;39.05;13.70;;;6.90;99.90;;;;;;4978506;28;20121;-75
2021/12/29 08:57:00;;;;;;;45.22;14.10;;;6.60;99.90;;;;;;4978633;28;20512;-76
2021/12/29 08:59:26;;;;;;;39.50;13.23;;;6.60;99.90;;;;;;4978721;28;20046;-74
2021/12/29 09:01:52;;;;;;;41.92;13.90;;;7.10;99.90;;;;;;4961862;28;20051;-74
2021/12/29 09:04:17;;;;;;;38.50;13.05;;;6.60;99.90;;;;;;4995979;28;20050;-73
2021/12/29 09:06:43;;;;;;;48.22;15.20;;;6.60;99.90;;;;;;4978116;28;20113;-74
2021/12/29 09:09:09;;;;;;;43.67;13.65;;;6.60;99.90;;;;;;4978559;28;20050;-74
2021/12/29 09:11:35;;;;;;;40.15;13.63;;;6.60;99.90;;;;;;4995930;28;20049;-72
2021/12/29 09:14:00;;;;;;;41.55;12.70;;;6.60;99.90;;;;;;4995990;28;20409;-74
2021/12/29 09:16:28;;;;;;;21.17;6.93;;;7.10;99.90;;;;;;4995808;28;20046;-74
2021/12/29 09:18:54;;;;;;;20.27;7.10;;;6.90;99.90;;;;;;4995720;28;20137;-75
2021/12/29 09:21:20;;;;;;;22.23;7.10;;;6.90;99.90;;;;;;4995378;28;20133;-76
2021/12/29 09:23:46;;;;;;;24.85;7.68;;;6.60;99.90;;;;;;4978007;28;20045;-75
2021/12/29 09:26:14;;;;;;;26.90;7.90;;;6.60;99.90;;;;;;4978290;28;20042;-75
2021/12/29 09:28:42;;;;;;;21.77;7.72;;;6.70;99.90;;;;;;4995480;28;20061;-77
2021/12/29 09:31:08;;;;;;;23.67;7.38;;;6.70;99.90;;;;;;4978039;28;20055;-76
2021/12/29 09:33:34;;;;;;;21.73;7.47;;;6.70;99.90;;;;;;4977951;28;20096;-74
2021/12/29 09:36:03;;;;;;;23.55;7.72;;;6.80;99.90;;;;;;4977263;28;20125;-75
2021/12/29 09:38:32;;;;;;;24.92;8.30;;;6.80;99.90;;;;;;4977993;28;20140;-77
2021/12/29 09:40:58;;;;;;;26.77;9.20;;;7.10;99.90;;;;;;4995530;28;20046;-76
2021/12/29 09:43:24;;;;;;;26.92;8.35;;;6.80;99.90;;;;;;4977727;28;20400;-75
2021/12/29 09:45:50;;;;;;;23.95;7.18;;;6.80;99.90;;;;;;4977928;28;20053;-74
2021/12/29 09:48:17;;;;;;;20.83;5.90;;;7.30;99.90;;;;;;4977477;28;20046;-73
2021/12/29 09:50:44;;;;;;;18.00;6.50;;;6.90;99.90;;;;;;4994863;28;20046;-75
2021/12/29 09:53:10;;;;;;;19.45;6.75;;;6.90;99.90;;;;;;4977552;28;20050;-75
2021/12/29 09:55:37;;;;;;;20.33;7.00;;;6.90;99.90;;;;;;4995202;28;20122;-77
2021/12/29 09:58:04;;;;;;;20.15;6.13;;;7.00;99.90;;;;;;4995065;28;20046;-75
2021/12/29 10:00:40;;;;;;;19.30;5.45;;;7.20;99.90;;;;;;4994997;28;20404;-76
2021/12/29 10:03:09;;;;;;;20.30;6.20;;;7.00;99.90;;;;;;4994719;28;20042;-75
2021/12/29 10:05:36;;;;;;;18.65;6.50;;;7.00;99.90;;;;;;4994689;28;20061;-74
2021/12/29 10:08:09;;;;;;;23.45;6.55;;;7.10;99.90;;;;;;4977293;28;20062;-75
2021/12/29 10:10:37;;;;;;;18.38;6.25;;;7.00;99.90;;;;;;4994791;28;20049;-73
2021/12/29 10:13:05;;;;;;;20.63;6.18;;;7.10;99.90;;;;;;4994681;28;20049;-74
2021/12/29 10:15:34;;;;;;;27.42;7.60;;;7.10;99.90;;;;;;4994455;28;20038;-77
2021/12/29 10:18:16;;;;;;;26.48;6.95;;;7.20;99.90;;;;;;4994325;28;20038;-76
2021/12/29 10:20:57;;;;;;;20.92;7.20;;;7.20;99.90;;;;;;4994814;28;20404;-73
2021/12/29 10:23:33;;;;;;;20.70;6.65;;;7.20;99.90;;;;;;4994428;28;20046;-76
2021/12/29 10:26:09;;;;;;;29.60;8.15;;;7.30;99.90;;;;;;4994499;28;20492;-74
2021/12/29 10:28:36;;;;;;;23.17;6.60;;;7.30;99.90;;;;;;4976821;28;20053;-75
2021/12/29 10:31:07;;;;;;;22.98;6.95;;;7.30;99.90;;;;;;4993948;28;20109;-76
2021/12/29 10:33:38;;;;;;;23.55;7.38;;;7.30;99.90;;;;;;4994178;28;20086;-76
2021/12/29 10:36:16;;;;;;;25.15;7.80;;;7.40;99.90;;;;;;4994334;28;20432;-72
2021/12/29 10:38:45;;;;;;;21.70;7.15;;;7.40;99.90;;;;;;4994161;28;20054;-76
2021/12/29 10:41:11;;;;;;;21.00;7.70;;;7.40;99.90;;;;;;4994041;28;20042;-75
2021/12/29 10:43:38;;;;;;;21.48;6.93;;;7.40;99.90;;;;;;4993981;28;20492;-75
2021/12/29 10:46:05;;;;;;;20.83;7.38;;;7.60;99.90;;;;;;4993845;28;20042;-75
2021/12/29 10:48:30;;;;;;;22.88;6.95;;;7.70;99.90;;;;;;4976441;28;20053;-75
2021/12/29 10:51:06;;;;;;;21.35;6.97;;;7.40;99.90;;;;;;4960385;28;20484;-74
2021/12/29 10:53:34;;;;;;;20.45;6.50;;;7.50;99.90;;;;;;4976603;28;20117;-76
2021/12/29 10:56:00;;;;;;;22.10;5.85;;;7.50;99.90;;;;;;4993766;28;20046;-74
2021/12/29 10:58:28;;;;;;;27.33;6.50;;;7.90;99.90;;;;;;4993699;28;20185;-76
2021/12/29 11:00:58;;;;;;;16.67;5.35;;;7.60;99.90;;;;;;4993670;28;20045;-75
2021/12/29 11:03:25;;;;;;;17.15;5.88;;;7.60;99.90;;;;;;4993636;28;20053;-75
2021/12/29 11:05:58;;;;;;;19.52;5.97;;;7.60;99.90;;;;;;4993360;28;20061;-76
2021/12/29 11:08:28;;;;;;;16.10;5.22;;;7.70;99.90;;;;;;4993374;28;20061;-76
2021/12/29 11:11:01;;;;;;;18.95;5.95;;;7.80;99.90;;;;;;4976292;28;20050;-75
2021/12/29 11:13:28;;;;;;;14.82;5.20;;;7.70;99.90;;;;;;4993691;28;20053;-75
2021/12/29 11:15:57;;;;;;;17.90;5.20;;;7.80;99.90;;;;;;4993478;28;20058;-74
2021/12/29 11:18:23;;;;;;;16.30;4.70;;;7.80;99.90;;;;;;4993414;28;20117;-76
2021/12/29 11:20:57;;;;;;;15.93;6.03;;;7.80;99.90;;;;;;4976230;28;20117;-75
2021/12/29 11:23:23;;;;;;;14.55;5.10;;;7.80;99.90;;;;;;4993211;28;20562;-76
2021/12/29 11:25:51;;;;;;;12.15;3.88;;;7.80;99.90;;;;;;4993426;28;20050;-75
2021/12/29 11:28:29;;;;;;;12.13;4.07;;;8.00;99.90;;;;;;4975828;28;20046;-75
2021/12/29 11:30:57;;;;;;;14.32;4.53;;;7.80;99.90;;;;;;4993329;28;20046;-75
2021/12/29 11:33:23;;;;;;;14.23;4.00;;;7.80;99.90;;;;;;4975923;28;20157;-75
2021/12/29 11:35:52;;;;;;;16.10;5.30;;;7.80;99.90;;;;;;4976031;28;20057;-75
2021/12/29 11:38:19;;;;;;;16.35;4.57;;;7.80;99.90;;;;;;4993494;28;20090;-76
2021/12/29 11:40:48;;;;;;;12.48;4.53;;;7.80;99.90;;;;;;4975981;28;20066;-77
2021/12/29 11:43:16;;;;;;;14.10;4.30;;;7.80;99.90;;;;;;4993019;28;20042;-74
2021/12/29 11:45:43;;;;;;;11.88;4.07;;;7.70;99.90;;;;;;4959536;28;20408;-75
2021/12/29 11:48:10;;;;;;;13.38;4.43;;;7.70;99.90;;;;;;4992939;28;20531;-77
2021/12/29 11:50:44;;;;;;;13.95;5.50;;;7.70;99.90;;;;;;4993235;28;20449;-74
2021/12/29 11:53:43;;;;;;;11.75;4.50;;;7.70;99.90;;;;;;4993088;28;20034;-75
2021/12/29 11:56:14;;;;;;;15.23;4.80;;;7.70;99.90;;;;;;4975737;28;20134;-75
2021/12/29 11:58:42;;;;;;;12.27;4.22;;;7.70;99.90;;;;;;4994754;28;20451;-77
2021/12/29 12:01:14;;;;;;;13.88;4.93;;;7.70;99.90;;;;;;4979544;28;20046;-74
2021/12/29 12:03:50;;;;;;;14.90;4.50;;;8.10;99.90;;;;;;4997086;28;20046;-76
2021/12/29 12:06:35;;;;;;;18.40;5.63;;;7.90;99.90;;;;;;4996716;28;20050;-77
2021/12/29 12:09:04;;;;;;;15.57;5.00;;;7.70;99.90;;;;;;4979540;28;20124;-76
2021/12/29 12:11:30;;;;;;;15.68;5.13;;;7.90;99.90;;;;;;4979512;28;20051;-77
2021/12/29 12:13:56;;;;;;;16.38;5.78;;;7.80;99.90;;;;;;4996749;28;20484;-76
2021/12/29 12:16:22;;;;;;;17.85;5.90;;;7.80;99.90;;;;;;4979218;28;20057;-76
2021/12/29 12:18:56;;;;;;;16.55;5.50;;;7.70;99.90;;;;;;4996626;28;20038;-76
2021/12/29 12:21:30;;;;;;;14.80;5.55;;;7.80;99.90;;;;;;4996687;28;20046;-77
2021/12/29 12:24:11;;;;;;;14.75;5.22;;;7.80;99.90;;;;;;4996354;28;20496;-75
2021/12/29 12:26:48;;;;;;;17.17;5.05;;;7.70;99.90;;;;;;4978953;28;20441;-76
2021/12/29 12:29:17;;;;;;;14.18;5.65;;;7.70;99.90;;;;;;4978750;28;20054;-77
2021/12/29 12:31:58;;;;;;;15.30;5.72;;;7.70;99.90;;;;;;4996463;28;20050;-76
2021/12/29 12:34:23;;;;;;;14.65;5.68;;;7.70;99.90;;;;;;4996290;28;20500;-75
2021/12/29 12:36:49;;;;;;;15.45;6.43;;;7.80;99.90;;;;;;4996339;28;20162;-74
2021/12/29 12:39:18;;;;;;;16.98;6.00;;;7.70;99.90;;;;;;4996489;28;20489;-77
2021/12/29 12:41:49;;;;;;;14.52;5.95;;;7.70;99.90;;;;;;4996207;28;20089;-77
2021/12/29 12:44:19;;;;;;;12.75;5.30;;;7.70;99.90;;;;;;4996281;28;20412;-77
2021/12/29 12:46:51;;;;;;;16.95;5.57;;;7.70;99.90;;;;;;4995975;28;20108;-76
2021/12/29 12:49:29;;;;;;;17.08;5.70;;;7.60;99.90;;;;;;4978205;28;20110;-76
2021/12/29 12:51:57;;;;;;;19.33;6.43;;;7.70;99.90;;;;;;4978393;28;20064;-76